sensor_id;sensor_type;location;lat;lon;timestamp;P1;durP1;ratioP1;P2;durP2;ratioP2
79036;SDS011;68434;59.896;30.474;2023-04-06T00:01:44;7.75;;;3.60;;
79036;SDS011;68434;59.896;30.474;2023-04-06T00:04:12;6.38;;;3.60;;
79036;SDS011;68434;59.896;30.474;2023-04-06T00:06:40;5.57;;;3.25;;
79036;SDS011;68434;59.896;30.474;2023-04-06T00:09:07;6.38;;;3.95;;
79036;SDS011;68434;59.896;30.474;2023-04-06T00:11:35;6.15;;;3.72;;
79036;SDS011;68434;59.896;30.474;2023-04-06T00:14:04;5.53;;;3.40;;
79036;SDS011;68434;59.896;30.474;2023-04-06T00:16:32;5.57;;;3.28;;
79036;SDS011;68434;59.896;30.474;2023-04-06T00:18:59;5.50;;;3.47;;
79036;SDS011;68434;59.896;30.474;2023-04-06T00:21:27;5.57;;;3.60;;
79036;SDS011;68434;59.896;30.474;2023-04-06T00:23:54;10.05;;;3.63;;
79036;SDS011;68434;59.896;30.474;2023-04-06T00:26:22;6.32;;;3.67;;
79036;SDS011;68434;59.896;30.474;2023-04-06T00:28:50;5.93;;;4.13;;
79036;SDS011;68434;59.896;30.474;2023-04-06T00:31:19;5.05;;;3.53;;
79036;SDS011;68434;59.896;30.474;2023-04-06T00:36:15;5.32;;;3.65;;
79036;SDS011;68434;59.896;30.474;2023-04-06T00:38:42;5.45;;;3.58;;
79036;SDS011;68434;59.896;30.474;2023-04-06T00:41:10;6.30;;;3.22;;
79036;SDS011;68434;59.896;30.474;2023-04-06T00:43:38;6.00;;;3.35;;
79036;SDS011;68434;59.896;30.474;2023-04-06T00:46:07;5.22;;;3.50;;
79036;SDS011;68434;59.896;30.474;2023-04-06T00:48:36;7.30;;;3.28;;
79036;SDS011;68434;59.896;30.474;2023-04-06T00:51:04;5.85;;;3.75;;
79036;SDS011;68434;59.896;30.474;2023-04-06T00:53:32;6.05;;;3.53;;
79036;SDS011;68434;59.896;30.474;2023-04-06T00:56:01;6.13;;;3.53;;
79036;SDS011;68434;59.896;30.474;2023-04-06T00:58:34;7.15;;;4.07;;
79036;SDS011;68434;59.896;30.474;2023-04-06T01:01:06;5.70;;;3.55;;
79036;SDS011;68434;59.896;30.474;2023-04-06T01:03:34;6.53;;;3.63;;
79036;SDS011;68434;59.896;30.474;2023-04-06T01:06:04;7.00;;;3.80;;
79036;SDS011;68434;59.896;30.474;2023-04-06T01:08:36;5.63;;;3.33;;
79036;SDS011;68434;59.896;30.474;2023-04-06T01:11:16;5.18;;;3.33;;
79036;SDS011;68434;59.896;30.474;2023-04-06T01:13:46;7.88;;;3.80;;
79036;SDS011;68434;59.896;30.474;2023-04-06T01:16:25;4.25;;;2.80;;
79036;SDS011;68434;59.896;30.474;2023-04-06T01:19:11;6.53;;;3.92;;
79036;SDS011;68434;59.896;30.474;2023-04-06T01:21:45;6.63;;;3.60;;
79036;SDS011;68434;59.896;30.474;2023-04-06T01:24:31;7.00;;;4.20;;
79036;SDS011;68434;59.896;30.474;2023-04-06T01:26:58;5.25;;;3.53;;
79036;SDS011;68434;59.896;30.474;2023-04-06T01:29:32;6.13;;;3.45;;
79036;SDS011;68434;59.896;30.474;2023-04-06T01:32:02;7.38;;;3.90;;
79036;SDS011;68434;59.896;30.474;2023-04-06T01:34:34;6.35;;;4.22;;
79036;SDS011;68434;59.896;30.474;2023-04-06T01:37:04;7.38;;;3.38;;
79036;SDS011;68434;59.896;30.474;2023-04-06T01:39:33;7.70;;;3.70;;
79036;SDS011;68434;59.896;30.474;2023-04-06T01:42:03;7.80;;;3.70;;
79036;SDS011;68434;59.896;30.474;2023-04-06T01:44:33;6.60;;;4.45;;
79036;SDS011;68434;59.896;30.474;2023-04-06T01:47:08;6.75;;;4.32;;
79036;SDS011;68434;59.896;30.474;2023-04-06T01:49:36;6.00;;;3.83;;
79036;SDS011;68434;59.896;30.474;2023-04-06T01:52:04;5.75;;;3.60;;
79036;SDS011;68434;59.896;30.474;2023-04-06T01:54:34;6.75;;;3.92;;
79036;SDS011;68434;59.896;30.474;2023-04-06T01:57:28;6.72;;;3.80;;
79036;SDS011;68434;59.896;30.474;2023-04-06T02:00:04;6.00;;;3.55;;
79036;SDS011;68434;59.896;30.474;2023-04-06T02:02:39;6.85;;;4.10;;
79036;SDS011;68434;59.896;30.474;2023-04-06T02:05:13;6.53;;;4.00;;
79036;SDS011;68434;59.896;30.474;2023-04-06T02:07:41;6.57;;;4.13;;
79036;SDS011;68434;59.896;30.474;2023-04-06T02:10:13;6.93;;;4.45;;
79036;SDS011;68434;59.896;30.474;2023-04-06T02:12:43;7.13;;;3.78;;
79036;SDS011;68434;59.896;30.474;2023-04-06T02:15:19;6.38;;;4.13;;
79036;SDS011;68434;59.896;30.474;2023-04-06T02:17:46;6.10;;;3.55;;
79036;SDS011;68434;59.896;30.474;2023-04-06T02:20:14;5.85;;;3.55;;
79036;SDS011;68434;59.896;30.474;2023-04-06T02:22:41;7.10;;;4.68;;
79036;SDS011;68434;59.896;30.474;2023-04-06T02:25:09;9.00;;;4.38;;
79036;SDS011;68434;59.896;30.474;2023-04-06T02:27:39;7.35;;;3.78;;
79036;SDS011;68434;59.896;30.474;2023-04-06T02:30:07;7.28;;;3.47;;
79036;SDS011;68434;59.896;30.474;2023-04-06T02:32:35;5.90;;;3.70;;
79036;SDS011;68434;59.896;30.474;2023-04-06T02:35:04;7.72;;;4.63;;
79036;SDS011;68434;59.896;30.474;2023-04-06T02:37:33;7.35;;;4.30;;
79036;SDS011;68434;59.896;30.474;2023-04-06T02:40:01;7.68;;;4.53;;
79036;SDS011;68434;59.896;30.474;2023-04-06T02:42:30;5.90;;;3.45;;
79036;SDS011;68434;59.896;30.474;2023-04-06T02:45:00;7.03;;;3.92;;
79036;SDS011;68434;59.896;30.474;2023-04-06T02:47:32;8.68;;;5.10;;
79036;SDS011;68434;59.896;30.474;2023-04-06T02:50:00;7.43;;;4.57;;
79036;SDS011;68434;59.896;30.474;2023-04-06T02:52:29;7.82;;;4.35;;
79036;SDS011;68434;59.896;30.474;2023-04-06T02:54:57;6.93;;;4.18;;
79036;SDS011;68434;59.896;30.474;2023-04-06T02:57:28;5.95;;;3.80;;
79036;SDS011;68434;59.896;30.474;2023-04-06T02:59:56;6.82;;;4.40;;
79036;SDS011;68434;59.896;30.474;2023-04-06T03:02:33;8.00;;;4.70;;
79036;SDS011;68434;59.896;30.474;2023-04-06T03:05:07;8.00;;;4.75;;
79036;SDS011;68434;59.896;30.474;2023-04-06T03:07:38;9.45;;;4.45;;
79036;SDS011;68434;59.896;30.474;2023-04-06T03:10:11;9.23;;;4.78;;
79036;SDS011;68434;59.896;30.474;2023-04-06T03:12:39;11.50;;;4.82;;
79036;SDS011;68434;59.896;30.474;2023-04-06T03:15:13;7.82;;;4.95;;
79036;SDS011;68434;59.896;30.474;2023-04-06T03:17:47;6.93;;;4.55;;
79036;SDS011;68434;59.896;30.474;2023-04-06T03:20:30;9.00;;;4.78;;
79036;SDS011;68434;59.896;30.474;2023-04-06T03:22:57;7.88;;;4.72;;
79036;SDS011;68434;59.896;30.474;2023-04-06T03:25:29;10.45;;;5.53;;
79036;SDS011;68434;59.896;30.474;2023-04-06T03:28:00;8.57;;;5.28;;
79036;SDS011;68434;59.896;30.474;2023-04-06T03:30:30;8.05;;;4.63;;
79036;SDS011;68434;59.896;30.474;2023-04-06T03:32:59;9.48;;;4.57;;
79036;SDS011;68434;59.896;30.474;2023-04-06T03:35:30;8.18;;;4.90;;
79036;SDS011;68434;59.896;30.474;2023-04-06T03:37:58;9.02;;;4.90;;
79036;SDS011;68434;59.896;30.474;2023-04-06T03:40:26;7.20;;;4.93;;
79036;SDS011;68434;59.896;30.474;2023-04-06T03:42:54;7.88;;;4.78;;
79036;SDS011;68434;59.896;30.474;2023-04-06T03:45:21;7.72;;;4.50;;
79036;SDS011;68434;59.896;30.474;2023-04-06T03:47:50;8.02;;;3.97;;
79036;SDS011;68434;59.896;30.474;2023-04-06T03:50:20;5.68;;;3.45;;
79036;SDS011;68434;59.896;30.474;2023-04-06T03:55:15;8.48;;;5.72;;
79036;SDS011;68434;59.896;30.474;2023-04-06T03:57:42;8.93;;;5.38;;
79036;SDS011;68434;59.896;30.474;2023-04-06T04:00:10;10.50;;;5.05;;
79036;SDS011;68434;59.896;30.474;2023-04-06T04:02:38;8.80;;;5.50;;
79036;SDS011;68434;59.896;30.474;2023-04-06T04:05:06;8.48;;;5.30;;
79036;SDS011;68434;59.896;30.474;2023-04-06T04:07:37;8.77;;;5.03;;
79036;SDS011;68434;59.896;30.474;2023-04-06T04:10:06;9.32;;;5.57;;
79036;SDS011;68434;59.896;30.474;2023-04-06T04:12:34;10.05;;;5.10;;
79036;SDS011;68434;59.896;30.474;2023-04-06T04:15:02;8.98;;;5.68;;
79036;SDS011;68434;59.896;30.474;2023-04-06T04:17:30;8.90;;;5.80;;
79036;SDS011;68434;59.896;30.474;2023-04-06T04:19:58;12.00;;;6.00;;
79036;SDS011;68434;59.896;30.474;2023-04-06T04:22:25;10.48;;;6.30;;
79036;SDS011;68434;59.896;30.474;2023-04-06T04:24:55;6.90;;;3.85;;
79036;SDS011;68434;59.896;30.474;2023-04-06T04:29:50;9.07;;;5.15;;
79036;SDS011;68434;59.896;30.474;2023-04-06T04:32:18;7.72;;;4.50;;
79036;SDS011;68434;59.896;30.474;2023-04-06T04:34:46;8.30;;;5.18;;
79036;SDS011;68434;59.896;30.474;2023-04-06T04:37:28;10.57;;;5.72;;
79036;SDS011;68434;59.896;30.474;2023-04-06T04:39:58;7.65;;;4.60;;
79036;SDS011;68434;59.896;30.474;2023-04-06T04:42:28;10.32;;;5.00;;
79036;SDS011;68434;59.896;30.474;2023-04-06T04:44:58;8.50;;;4.80;;
79036;SDS011;68434;59.896;30.474;2023-04-06T04:47:35;8.18;;;4.57;;
79036;SDS011;68434;59.896;30.474;2023-04-06T04:50:04;10.98;;;5.65;;
79036;SDS011;68434;59.896;30.474;2023-04-06T04:52:33;7.35;;;4.57;;
79036;SDS011;68434;59.896;30.474;2023-04-06T04:55:16;7.07;;;4.40;;
79036;SDS011;68434;59.896;30.474;2023-04-06T04:57:46;8.68;;;5.38;;
79036;SDS011;68434;59.896;30.474;2023-04-06T05:00:16;7.40;;;4.47;;
79036;SDS011;68434;59.896;30.474;2023-04-06T05:02:44;5.82;;;3.78;;
79036;SDS011;68434;59.896;30.474;2023-04-06T05:05:19;6.47;;;3.85;;
79036;SDS011;68434;59.896;30.474;2023-04-06T05:07:49;6.78;;;3.60;;
79036;SDS011;68434;59.896;30.474;2023-04-06T05:10:27;8.63;;;4.57;;
79036;SDS011;68434;59.896;30.474;2023-04-06T05:12:59;5.50;;;3.55;;
79036;SDS011;68434;59.896;30.474;2023-04-06T05:15:26;7.90;;;4.32;;
79036;SDS011;68434;59.896;30.474;2023-04-06T05:18:01;7.63;;;4.10;;
79036;SDS011;68434;59.896;30.474;2023-04-06T05:20:32;7.38;;;4.43;;
79036;SDS011;68434;59.896;30.474;2023-04-06T05:23:00;6.72;;;3.22;;
79036;SDS011;68434;59.896;30.474;2023-04-06T05:25:29;7.38;;;4.68;;
79036;SDS011;68434;59.896;30.474;2023-04-06T05:28:03;7.55;;;4.18;;
79036;SDS011;68434;59.896;30.474;2023-04-06T05:30:34;7.32;;;4.20;;
79036;SDS011;68434;59.896;30.474;2023-04-06T05:33:02;7.93;;;4.70;;
79036;SDS011;68434;59.896;30.474;2023-04-06T05:35:43;6.60;;;4.18;;
79036;SDS011;68434;59.896;30.474;2023-04-06T05:38:12;7.75;;;4.30;;
79036;SDS011;68434;59.896;30.474;2023-04-06T05:40:41;8.82;;;4.20;;
79036;SDS011;68434;59.896;30.474;2023-04-06T05:43:13;6.22;;;4.18;;
79036;SDS011;68434;59.896;30.474;2023-04-06T05:45:55;5.90;;;3.50;;
79036;SDS011;68434;59.896;30.474;2023-04-06T05:48:22;9.20;;;4.35;;
79036;SDS011;68434;59.896;30.474;2023-04-06T05:50:50;7.35;;;4.35;;
79036;SDS011;68434;59.896;30.474;2023-04-06T05:53:23;5.63;;;3.45;;
79036;SDS011;68434;59.896;30.474;2023-04-06T05:56:00;5.57;;;3.33;;
79036;SDS011;68434;59.896;30.474;2023-04-06T05:58:28;6.63;;;3.42;;
79036;SDS011;68434;59.896;30.474;2023-04-06T06:00:56;4.75;;;2.83;;
79036;SDS011;68434;59.896;30.474;2023-04-06T06:03:25;6.47;;;3.35;;
79036;SDS011;68434;59.896;30.474;2023-04-06T06:05:59;5.40;;;3.40;;
79036;SDS011;68434;59.896;30.474;2023-04-06T06:11:22;5.22;;;3.33;;
79036;SDS011;68434;59.896;30.474;2023-04-06T06:14:08;4.45;;;2.92;;
79036;SDS011;68434;59.896;30.474;2023-04-06T06:16:39;6.38;;;3.88;;
79036;SDS011;68434;59.896;30.474;2023-04-06T06:19:25;6.63;;;4.43;;
79036;SDS011;68434;59.896;30.474;2023-04-06T06:21:56;5.88;;;3.40;;
79036;SDS011;68434;59.896;30.474;2023-04-06T06:24:24;6.43;;;4.03;;
79036;SDS011;68434;59.896;30.474;2023-04-06T06:26:53;7.35;;;4.60;;
79036;SDS011;68434;59.896;30.474;2023-04-06T06:29:25;6.72;;;3.92;;
79036;SDS011;68434;59.896;30.474;2023-04-06T06:31:52;6.10;;;3.88;;
79036;SDS011;68434;59.896;30.474;2023-04-06T06:34:22;6.88;;;3.95;;
79036;SDS011;68434;59.896;30.474;2023-04-06T06:36:49;7.15;;;4.38;;
79036;SDS011;68434;59.896;30.474;2023-04-06T06:39:17;6.13;;;3.67;;
79036;SDS011;68434;59.896;30.474;2023-04-06T06:41:45;6.63;;;3.40;;
79036;SDS011;68434;59.896;30.474;2023-04-06T06:45:06;5.63;;;3.47;;
79036;SDS011;68434;59.896;30.474;2023-04-06T06:47:35;4.55;;;2.90;;
79036;SDS011;68434;59.896;30.474;2023-04-06T06:50:03;8.20;;;4.32;;
79036;SDS011;68434;59.896;30.474;2023-04-06T06:52:31;6.80;;;3.50;;
79036;SDS011;68434;59.896;30.474;2023-04-06T06:54:59;5.57;;;3.40;;
79036;SDS011;68434;59.896;30.474;2023-04-06T06:58:02;4.95;;;3.17;;
79036;SDS011;68434;59.896;30.474;2023-04-06T07:00:33;6.68;;;3.70;;
79036;SDS011;68434;59.896;30.474;2023-04-06T07:06:22;6.03;;;3.67;;
79036;SDS011;68434;59.896;30.474;2023-04-06T07:09:08;7.95;;;4.20;;
79036;SDS011;68434;59.896;30.474;2023-04-06T07:14:39;6.82;;;3.50;;
79036;SDS011;68434;59.896;30.474;2023-04-06T07:17:08;6.60;;;3.63;;
79036;SDS011;68434;59.896;30.474;2023-04-06T07:19:37;8.50;;;3.63;;
79036;SDS011;68434;59.896;30.474;2023-04-06T07:22:04;5.43;;;3.45;;
79036;SDS011;68434;59.896;30.474;2023-04-06T07:24:32;6.32;;;3.53;;
79036;SDS011;68434;59.896;30.474;2023-04-06T07:27:00;6.43;;;3.92;;
79036;SDS011;68434;59.896;30.474;2023-04-06T07:29:27;7.10;;;3.85;;
79036;SDS011;68434;59.896;30.474;2023-04-06T07:31:55;7.50;;;3.55;;
79036;SDS011;68434;59.896;30.474;2023-04-06T07:34:25;6.13;;;3.75;;
79036;SDS011;68434;59.896;30.474;2023-04-06T07:36:52;5.57;;;3.80;;
79036;SDS011;68434;59.896;30.474;2023-04-06T07:39:20;8.13;;;3.95;;
79036;SDS011;68434;59.896;30.474;2023-04-06T07:41:47;7.60;;;3.85;;
79036;SDS011;68434;59.896;30.474;2023-04-06T07:44:15;6.97;;;3.80;;
79036;SDS011;68434;59.896;30.474;2023-04-06T07:46:44;6.82;;;3.80;;
79036;SDS011;68434;59.896;30.474;2023-04-06T07:49:12;6.32;;;4.15;;
79036;SDS011;68434;59.896;30.474;2023-04-06T07:51:41;6.45;;;4.45;;
79036;SDS011;68434;59.896;30.474;2023-04-06T07:56:35;6.60;;;3.33;;
79036;SDS011;68434;59.896;30.474;2023-04-06T07:59:03;4.20;;;2.45;;
79036;SDS011;68434;59.896;30.474;2023-04-06T08:01:30;8.27;;;4.88;;
79036;SDS011;68434;59.896;30.474;2023-04-06T08:03:58;7.03;;;2.25;;
79036;SDS011;68434;59.896;30.474;2023-04-06T08:06:27;8.32;;;5.05;;
79036;SDS011;68434;59.896;30.474;2023-04-06T08:08:57;7.07;;;4.28;;
79036;SDS011;68434;59.896;30.474;2023-04-06T08:11:24;6.43;;;4.22;;
79036;SDS011;68434;59.896;30.474;2023-04-06T08:13:52;6.93;;;3.78;;
79036;SDS011;68434;59.896;30.474;2023-04-06T08:16:21;6.75;;;4.13;;
79036;SDS011;68434;59.896;30.474;2023-04-06T08:18:48;7.65;;;4.75;;
79036;SDS011;68434;59.896;30.474;2023-04-06T08:21:16;7.88;;;4.63;;
79036;SDS011;68434;59.896;30.474;2023-04-06T08:23:43;8.95;;;5.00;;
79036;SDS011;68434;59.896;30.474;2023-04-06T08:26:13;7.22;;;4.40;;
79036;SDS011;68434;59.896;30.474;2023-04-06T08:28:40;6.60;;;4.43;;
79036;SDS011;68434;59.896;30.474;2023-04-06T08:31:08;7.50;;;4.57;;
79036;SDS011;68434;59.896;30.474;2023-04-06T08:33:35;8.07;;;4.88;;
79036;SDS011;68434;59.896;30.474;2023-04-06T08:36:08;8.75;;;5.00;;
79036;SDS011;68434;59.896;30.474;2023-04-06T08:41:42;7.47;;;4.80;;
79036;SDS011;68434;59.896;30.474;2023-04-06T08:44:10;8.13;;;4.95;;
79036;SDS011;68434;59.896;30.474;2023-04-06T08:46:38;7.68;;;4.95;;
79036;SDS011;68434;59.896;30.474;2023-04-06T08:49:06;9.30;;;4.88;;
79036;SDS011;68434;59.896;30.474;2023-04-06T08:51:36;7.65;;;4.43;;
79036;SDS011;68434;59.896;30.474;2023-04-06T08:54:04;10.48;;;5.45;;
79036;SDS011;68434;59.896;30.474;2023-04-06T08:56:31;8.57;;;5.35;;
79036;SDS011;68434;59.896;30.474;2023-04-06T08:59:01;9.82;;;5.63;;
79036;SDS011;68434;59.896;30.474;2023-04-06T09:01:31;7.45;;;5.40;;
79036;SDS011;68434;59.896;30.474;2023-04-06T09:04:04;9.05;;;5.95;;
79036;SDS011;68434;59.896;30.474;2023-04-06T09:06:35;8.15;;;5.35;;
79036;SDS011;68434;59.896;30.474;2023-04-06T09:09:03;9.40;;;6.13;;
79036;SDS011;68434;59.896;30.474;2023-04-06T09:11:41;10.27;;;6.15;;
79036;SDS011;68434;59.896;30.474;2023-04-06T09:14:11;11.57;;;6.80;;
79036;SDS011;68434;59.896;30.474;2023-04-06T09:16:39;10.60;;;6.68;;
79036;SDS011;68434;59.896;30.474;2023-04-06T09:19:07;14.43;;;7.70;;
79036;SDS011;68434;59.896;30.474;2023-04-06T09:21:35;13.23;;;7.22;;
79036;SDS011;68434;59.896;30.474;2023-04-06T09:24:03;14.40;;;8.73;;
79036;SDS011;68434;59.896;30.474;2023-04-06T09:26:31;12.02;;;7.93;;
79036;SDS011;68434;59.896;30.474;2023-04-06T09:28:59;12.30;;;7.80;;
79036;SDS011;68434;59.896;30.474;2023-04-06T09:31:29;15.63;;;7.85;;
79036;SDS011;68434;59.896;30.474;2023-04-06T09:33:59;13.40;;;8.02;;
79036;SDS011;68434;59.896;30.474;2023-04-06T09:36:30;12.85;;;7.97;;
79036;SDS011;68434;59.896;30.474;2023-04-06T09:38:58;13.70;;;7.63;;
79036;SDS011;68434;59.896;30.474;2023-04-06T09:41:27;12.27;;;8.20;;
79036;SDS011;68434;59.896;30.474;2023-04-06T09:44:03;11.05;;;7.43;;
79036;SDS011;68434;59.896;30.474;2023-04-06T09:46:33;13.85;;;8.10;;
79036;SDS011;68434;59.896;30.474;2023-04-06T09:49:02;16.15;;;8.50;;
79036;SDS011;68434;59.896;30.474;2023-04-06T09:51:31;13.40;;;8.82;;
79036;SDS011;68434;59.896;30.474;2023-04-06T09:54:03;14.60;;;9.18;;
79036;SDS011;68434;59.896;30.474;2023-04-06T09:56:34;15.82;;;8.88;;
79036;SDS011;68434;59.896;30.474;2023-04-06T09:59:08;13.18;;;8.65;;
79036;SDS011;68434;59.896;30.474;2023-04-06T10:01:41;15.82;;;8.27;;
79036;SDS011;68434;59.896;30.474;2023-04-06T10:04:13;14.25;;;9.23;;
79036;SDS011;68434;59.896;30.474;2023-04-06T10:06:51;16.08;;;9.27;;
79036;SDS011;68434;59.896;30.474;2023-04-06T10:09:19;12.13;;;7.03;;
79036;SDS011;68434;59.896;30.474;2023-04-06T10:11:55;12.48;;;9.35;;
79036;SDS011;68434;59.896;30.474;2023-04-06T10:14:22;12.07;;;7.43;;
79036;SDS011;68434;59.896;30.474;2023-04-06T10:19:42;11.27;;;7.68;;
79036;SDS011;68434;59.896;30.474;2023-04-06T10:25:26;10.57;;;5.95;;
79036;SDS011;68434;59.896;30.474;2023-04-06T10:28:31;11.55;;;6.93;;
79036;SDS011;68434;59.896;30.474;2023-04-06T10:31:01;10.18;;;5.82;;
79036;SDS011;68434;59.896;30.474;2023-04-06T10:36:24;10.48;;;6.32;;
79036;SDS011;68434;59.896;30.474;2023-04-06T10:38:56;9.45;;;5.53;;
79036;SDS011;68434;59.896;30.474;2023-04-06T10:41:31;12.02;;;7.63;;
79036;SDS011;68434;59.896;30.474;2023-04-06T10:44:00;12.05;;;6.80;;
79036;SDS011;68434;59.896;30.474;2023-04-06T10:46:28;13.88;;;6.60;;
79036;SDS011;68434;59.896;30.474;2023-04-06T10:51:37;9.25;;;6.03;;
79036;SDS011;68434;59.896;30.474;2023-04-06T10:56:35;10.50;;;6.25;;
79036;SDS011;68434;59.896;30.474;2023-04-06T10:59:05;10.45;;;6.28;;
79036;SDS011;68434;59.896;30.474;2023-04-06T11:01:33;10.10;;;5.78;;
79036;SDS011;68434;59.896;30.474;2023-04-06T11:04:02;10.07;;;5.95;;
79036;SDS011;68434;59.896;30.474;2023-04-06T11:06:30;9.25;;;6.03;;
79036;SDS011;68434;59.896;30.474;2023-04-06T11:08:58;12.80;;;5.53;;
79036;SDS011;68434;59.896;30.474;2023-04-06T11:14:12;7.43;;;4.70;;
79036;SDS011;68434;59.896;30.474;2023-04-06T11:16:40;8.70;;;4.25;;
79036;SDS011;68434;59.896;30.474;2023-04-06T11:19:26;9.15;;;4.53;;
79036;SDS011;68434;59.896;30.474;2023-04-06T11:21:54;8.35;;;4.30;;
79036;SDS011;68434;59.896;30.474;2023-04-06T11:24:22;7.97;;;4.95;;
79036;SDS011;68434;59.896;30.474;2023-04-06T11:26:52;7.07;;;4.95;;
79036;SDS011;68434;59.896;30.474;2023-04-06T11:29:22;8.60;;;4.30;;
79036;SDS011;68434;59.896;30.474;2023-04-06T11:31:51;8.15;;;4.55;;
79036;SDS011;68434;59.896;30.474;2023-04-06T11:34:20;8.15;;;4.93;;
79036;SDS011;68434;59.896;30.474;2023-04-06T11:36:54;7.78;;;5.15;;
79036;SDS011;68434;59.896;30.474;2023-04-06T11:39:23;6.00;;;4.03;;
79036;SDS011;68434;59.896;30.474;2023-04-06T11:41:53;7.57;;;4.88;;
79036;SDS011;68434;59.896;30.474;2023-04-06T11:44:31;13.48;;;6.70;;
79036;SDS011;68434;59.896;30.474;2023-04-06T11:47:03;16.60;;;7.82;;
79036;SDS011;68434;59.896;30.474;2023-04-06T11:49:32;12.13;;;6.47;;
79036;SDS011;68434;59.896;30.474;2023-04-06T11:52:02;10.80;;;5.93;;
79036;SDS011;68434;59.896;30.474;2023-04-06T11:54:30;13.60;;;6.65;;
79036;SDS011;68434;59.896;30.474;2023-04-06T11:56:59;12.57;;;7.00;;
79036;SDS011;68434;59.896;30.474;2023-04-06T11:59:27;13.30;;;8.23;;
79036;SDS011;68434;59.896;30.474;2023-04-06T12:01:55;11.15;;;7.03;;
79036;SDS011;68434;59.896;30.474;2023-04-06T12:04:23;13.50;;;6.40;;
79036;SDS011;68434;59.896;30.474;2023-04-06T12:06:51;12.00;;;6.90;;
79036;SDS011;68434;59.896;30.474;2023-04-06T12:09:20;14.93;;;8.43;;
79036;SDS011;68434;59.896;30.474;2023-04-06T12:11:48;21.23;;;7.43;;
79036;SDS011;68434;59.896;30.474;2023-04-06T12:14:16;16.77;;;7.05;;
79036;SDS011;68434;59.896;30.474;2023-04-06T12:16:44;9.05;;;5.68;;
79036;SDS011;68434;59.896;30.474;2023-04-06T12:19:11;12.25;;;6.53;;
79036;SDS011;68434;59.896;30.474;2023-04-06T12:21:39;12.10;;;5.63;;
79036;SDS011;68434;59.896;30.474;2023-04-06T12:24:07;11.48;;;5.82;;
79036;SDS011;68434;59.896;30.474;2023-04-06T12:26:37;10.77;;;5.28;;
79036;SDS011;68434;59.896;30.474;2023-04-06T12:29:04;10.50;;;4.75;;
79036;SDS011;68434;59.896;30.474;2023-04-06T12:31:34;8.35;;;4.05;;
79036;SDS011;68434;59.896;30.474;2023-04-06T12:34:04;11.25;;;4.07;;
79036;SDS011;68434;59.896;30.474;2023-04-06T12:36:31;9.10;;;4.50;;
79036;SDS011;68434;59.896;30.474;2023-04-06T12:39:00;6.75;;;3.13;;
79036;SDS011;68434;59.896;30.474;2023-04-06T12:41:29;8.50;;;3.25;;
79036;SDS011;68434;59.896;30.474;2023-04-06T12:43:58;7.32;;;3.83;;
79036;SDS011;68434;59.896;30.474;2023-04-06T12:46:26;5.35;;;3.17;;
79036;SDS011;68434;59.896;30.474;2023-04-06T12:48:55;9.45;;;3.58;;
79036;SDS011;68434;59.896;30.474;2023-04-06T12:51:24;4.55;;;3.05;;
79036;SDS011;68434;59.896;30.474;2023-04-06T12:53:54;7.30;;;3.10;;
79036;SDS011;68434;59.896;30.474;2023-04-06T12:56:22;5.30;;;2.33;;
79036;SDS011;68434;59.896;30.474;2023-04-06T12:58:50;6.68;;;2.80;;
79036;SDS011;68434;59.896;30.474;2023-04-06T13:01:20;6.47;;;3.38;;
79036;SDS011;68434;59.896;30.474;2023-04-06T13:03:47;6.65;;;2.47;;
79036;SDS011;68434;59.896;30.474;2023-04-06T13:06:15;5.43;;;2.85;;
79036;SDS011;68434;59.896;30.474;2023-04-06T13:08:42;3.63;;;2.10;;
79036;SDS011;68434;59.896;30.474;2023-04-06T13:11:10;4.75;;;2.67;;
79036;SDS011;68434;59.896;30.474;2023-04-06T13:13:38;6.30;;;2.72;;
79036;SDS011;68434;59.896;30.474;2023-04-06T13:16:06;7.97;;;2.65;;
79036;SDS011;68434;59.896;30.474;2023-04-06T13:18:37;4.72;;;2.45;;
79036;SDS011;68434;59.896;30.474;2023-04-06T13:21:05;5.00;;;2.60;;
79036;SDS011;68434;59.896;30.474;2023-04-06T13:23:32;4.75;;;2.08;;
79036;SDS011;68434;59.896;30.474;2023-04-06T13:26:00;5.70;;;3.05;;
79036;SDS011;68434;59.896;30.474;2023-04-06T13:28:31;4.47;;;2.58;;
79036;SDS011;68434;59.896;30.474;2023-04-06T13:31:01;4.50;;;2.55;;
79036;SDS011;68434;59.896;30.474;2023-04-06T13:35:59;6.43;;;2.70;;
79036;SDS011;68434;59.896;30.474;2023-04-06T13:38:45;5.78;;;2.60;;
79036;SDS011;68434;59.896;30.474;2023-04-06T13:41:17;7.03;;;2.42;;
79036;SDS011;68434;59.896;30.474;2023-04-06T13:46:32;4.25;;;2.45;;
79036;SDS011;68434;59.896;30.474;2023-04-06T13:51:48;4.13;;;2.50;;
79036;SDS011;68434;59.896;30.474;2023-04-06T13:57:04;5.35;;;2.20;;
79036;SDS011;68434;59.896;30.474;2023-04-06T13:59:33;4.25;;;2.10;;
79036;SDS011;68434;59.896;30.474;2023-04-06T14:02:19;3.65;;;2.10;;
79036;SDS011;68434;59.896;30.474;2023-04-06T14:04:52;3.47;;;2.00;;
79036;SDS011;68434;59.896;30.474;2023-04-06T14:07:22;3.53;;;2.00;;
79036;SDS011;68434;59.896;30.474;2023-04-06T14:09:49;6.72;;;2.08;;
79036;SDS011;68434;59.896;30.474;2023-04-06T14:12:17;6.60;;;3.50;;
79036;SDS011;68434;59.896;30.474;2023-04-06T14:14:45;5.03;;;2.15;;
79036;SDS011;68434;59.896;30.474;2023-04-06T14:17:12;7.85;;;2.58;;
79036;SDS011;68434;59.896;30.474;2023-04-06T14:19:40;3.33;;;2.05;;
79036;SDS011;68434;59.896;30.474;2023-04-06T14:22:08;4.70;;;2.05;;
79036;SDS011;68434;59.896;30.474;2023-04-06T14:24:37;6.63;;;2.28;;
79036;SDS011;68434;59.896;30.474;2023-04-06T14:27:05;3.67;;;1.95;;
79036;SDS011;68434;59.896;30.474;2023-04-06T14:29:33;9.55;;;2.20;;
79036;SDS011;68434;59.896;30.474;2023-04-06T14:32:01;7.30;;;2.20;;
79036;SDS011;68434;59.896;30.474;2023-04-06T14:34:28;4.53;;;2.20;;
79036;SDS011;68434;59.896;30.474;2023-04-06T14:36:56;4.07;;;2.15;;
79036;SDS011;68434;59.896;30.474;2023-04-06T14:39:24;4.93;;;1.80;;
79036;SDS011;68434;59.896;30.474;2023-04-06T14:41:53;3.90;;;2.25;;
79036;SDS011;68434;59.896;30.474;2023-04-06T14:44:21;3.50;;;1.85;;
79036;SDS011;68434;59.896;30.474;2023-04-06T14:46:49;5.00;;;2.10;;
79036;SDS011;68434;59.896;30.474;2023-04-06T14:49:16;5.15;;;1.88;;
79036;SDS011;68434;59.896;30.474;2023-04-06T14:51:44;3.78;;;1.85;;
79036;SDS011;68434;59.896;30.474;2023-04-06T14:54:12;4.57;;;2.10;;
79036;SDS011;68434;59.896;30.474;2023-04-06T14:56:59;5.13;;;2.00;;
79036;SDS011;68434;59.896;30.474;2023-04-06T14:59:27;9.23;;;2.40;;
79036;SDS011;68434;59.896;30.474;2023-04-06T15:01:54;6.00;;;1.92;;
79036;SDS011;68434;59.896;30.474;2023-04-06T15:04:41;2.83;;;1.70;;
79036;SDS011;68434;59.896;30.474;2023-04-06T15:07:09;7.40;;;2.22;;
79036;SDS011;68434;59.896;30.474;2023-04-06T15:09:36;6.30;;;2.10;;
79036;SDS011;68434;59.896;30.474;2023-04-06T15:12:24;3.15;;;1.60;;
79036;SDS011;68434;59.896;30.474;2023-04-06T15:14:51;4.85;;;1.55;;
79036;SDS011;68434;59.896;30.474;2023-04-06T15:17:19;2.88;;;1.63;;
79036;SDS011;68434;59.896;30.474;2023-04-06T15:19:47;5.15;;;1.77;;
79036;SDS011;68434;59.896;30.474;2023-04-06T15:22:14;4.03;;;1.85;;
79036;SDS011;68434;59.896;30.474;2023-04-06T15:24:42;5.18;;;2.03;;
79036;SDS011;68434;59.896;30.474;2023-04-06T15:27:30;8.10;;;1.80;;
79036;SDS011;68434;59.896;30.474;2023-04-06T15:29:58;4.35;;;2.00;;
79036;SDS011;68434;59.896;30.474;2023-04-06T15:32:26;9.57;;;2.30;;
79036;SDS011;68434;59.896;30.474;2023-04-06T15:34:53;5.28;;;2.30;;
79036;SDS011;68434;59.896;30.474;2023-04-06T15:37:22;3.92;;;2.10;;
79036;SDS011;68434;59.896;30.474;2023-04-06T15:39:50;5.95;;;2.20;;